sensor_id;sensor_type;location;lat;lon;timestamp;P1;durP1;ratioP1;P2;durP2;ratioP2
840;SDS011;406;48.566;13.450;2022-10-01T00:01:41;10.30;;;5.43;;
840;SDS011;406;48.566;13.450;2022-10-01T00:04:06;45.37;;;8.40;;
840;SDS011;406;48.566;13.450;2022-10-01T00:06:32;11.97;;;5.57;;
840;SDS011;406;48.566;13.450;2022-10-01T00:08:57;16.27;;;6.73;;
840;SDS011;406;48.566;13.450;2022-10-01T00:11:23;26.47;;;7.43;;
840;SDS011;406;48.566;13.450;2022-10-01T00:13:50;11.37;;;6.30;;
840;SDS011;406;48.566;13.450;2022-10-01T00:16:17;44.47;;;7.60;;
840;SDS011;406;48.566;13.450;2022-10-01T00:18:45;11.50;;;6.67;;
840;SDS011;406;48.566;13.450;2022-10-01T00:21:12;10.33;;;6.77;;
840;SDS011;406;48.566;13.450;2022-10-01T00:23:39;11.17;;;6.70;;
840;SDS011;406;48.566;13.450;2022-10-01T00:26:07;11.70;;;6.20;;
840;SDS011;406;48.566;13.450;2022-10-01T00:28:36;7.10;;;5.73;;
840;SDS011;406;48.566;13.450;2022-10-01T00:31:02;20.23;;;6.77;;
840;SDS011;406;48.566;13.450;2022-10-01T00:33:28;9.83;;;6.30;;
840;SDS011;406;48.566;13.450;2022-10-01T00:35:53;12.73;;;6.37;;
840;SDS011;406;48.566;13.450;2022-10-01T00:38:19;8.13;;;6.23;;
840;SDS011;406;48.566;13.450;2022-10-01T00:40:45;6.90;;;6.20;;
840;SDS011;406;48.566;13.450;2022-10-01T00:46:11;9.40;;;5.97;;
840;SDS011;406;48.566;13.450;2022-10-01T00:48:42;22.10;;;7.40;;
840;SDS011;406;48.566;13.450;2022-10-01T00:51:14;12.20;;;5.93;;
840;SDS011;406;48.566;13.450;2022-10-01T00:53:40;6.10;;;5.50;;
840;SDS011;406;48.566;13.450;2022-10-01T00:56:06;8.87;;;6.27;;
840;SDS011;406;48.566;13.450;2022-10-01T00:58:31;7.77;;;6.53;;
840;SDS011;406;48.566;13.450;2022-10-01T01:00:58;12.50;;;5.87;;
840;SDS011;406;48.566;13.450;2022-10-01T01:03:23;14.97;;;6.70;;
840;SDS011;406;48.566;13.450;2022-10-01T01:05:49;8.80;;;6.23;;
840;SDS011;406;48.566;13.450;2022-10-01T01:08:14;6.67;;;5.97;;
840;SDS011;406;48.566;13.450;2022-10-01T01:13:44;9.70;;;6.50;;
840;SDS011;406;48.566;13.450;2022-10-01T01:16:17;12.57;;;5.13;;
840;SDS011;406;48.566;13.450;2022-10-01T01:18:52;11.53;;;6.07;;
840;SDS011;406;48.566;13.450;2022-10-01T01:26:47;15.43;;;6.63;;
840;SDS011;406;48.566;13.450;2022-10-01T01:31:46;9.13;;;6.30;;
840;SDS011;406;48.566;13.450;2022-10-01T01:34:14;12.53;;;5.57;;
840;SDS011;406;48.566;13.450;2022-10-01T01:36:54;13.60;;;7.80;;
840;SDS011;406;48.566;13.450;2022-10-01T01:39:24;12.20;;;6.73;;
840;SDS011;406;48.566;13.450;2022-10-01T01:41:52;21.90;;;8.80;;
840;SDS011;406;48.566;13.450;2022-10-01T01:44:22;12.53;;;7.00;;
840;SDS011;406;48.566;13.450;2022-10-01T01:46:48;13.90;;;9.40;;
840;SDS011;406;48.566;13.450;2022-10-01T01:49:15;8.97;;;6.00;;
840;SDS011;406;48.566;13.450;2022-10-01T01:51:57;12.07;;;7.63;;
840;SDS011;406;48.566;13.450;2022-10-01T01:54:28;12.43;;;7.27;;
840;SDS011;406;48.566;13.450;2022-10-01T01:56:54;10.47;;;6.90;;
840;SDS011;406;48.566;13.450;2022-10-01T01:59:23;8.43;;;6.07;;
840;SDS011;406;48.566;13.450;2022-10-01T02:01:49;6.30;;;5.37;;
840;SDS011;406;48.566;13.450;2022-10-01T02:04:19;5.20;;;4.70;;
840;SDS011;406;48.566;13.450;2022-10-01T02:12:17;5.43;;;3.87;;
840;SDS011;406;48.566;13.450;2022-10-01T02:15:13;4.60;;;3.57;;
840;SDS011;406;48.566;13.450;2022-10-01T02:17:48;5.13;;;4.13;;
840;SDS011;406;48.566;13.450;2022-10-01T02:20:24;8.90;;;5.30;;
840;SDS011;406;48.566;13.450;2022-10-01T02:22:55;6.30;;;4.77;;
840;SDS011;406;48.566;13.450;2022-10-01T02:25:24;6.77;;;5.50;;
840;SDS011;406;48.566;13.450;2022-10-01T02:27:54;5.90;;;4.87;;
840;SDS011;406;48.566;13.450;2022-10-01T02:30:23;5.60;;;4.20;;
840;SDS011;406;48.566;13.450;2022-10-01T02:32:49;4.73;;;4.33;;
840;SDS011;406;48.566;13.450;2022-10-01T02:35:16;6.20;;;4.60;;
840;SDS011;406;48.566;13.450;2022-10-01T02:37:43;6.60;;;5.27;;
840;SDS011;406;48.566;13.450;2022-10-01T02:40:10;7.20;;;4.10;;
840;SDS011;406;48.566;13.450;2022-10-01T02:42:41;5.90;;;4.83;;
840;SDS011;406;48.566;13.450;2022-10-01T02:45:09;5.80;;;5.10;;
840;SDS011;406;48.566;13.450;2022-10-01T02:47:36;6.67;;;5.97;;
840;SDS011;406;48.566;13.450;2022-10-01T02:50:05;6.30;;;5.10;;
840;SDS011;406;48.566;13.450;2022-10-01T02:55:32;5.70;;;4.80;;
840;SDS011;406;48.566;13.450;2022-10-01T02:58:03;6.50;;;5.53;;
840;SDS011;406;48.566;13.450;2022-10-01T03:00:28;5.60;;;4.57;;
840;SDS011;406;48.566;13.450;2022-10-01T03:02:54;6.77;;;5.13;;
840;SDS011;406;48.566;13.450;2022-10-01T03:05:19;6.80;;;5.50;;
840;SDS011;406;48.566;13.450;2022-10-01T03:07:45;8.50;;;5.90;;
840;SDS011;406;48.566;13.450;2022-10-01T03:10:12;6.30;;;5.20;;
840;SDS011;406;48.566;13.450;2022-10-01T03:12:40;5.77;;;4.80;;
840;SDS011;406;48.566;13.450;2022-10-01T03:15:09;5.60;;;4.67;;
840;SDS011;406;48.566;13.450;2022-10-01T03:17:36;5.67;;;5.07;;
840;SDS011;406;48.566;13.450;2022-10-01T03:20:02;6.37;;;5.70;;
840;SDS011;406;48.566;13.450;2022-10-01T03:22:29;5.00;;;4.50;;
840;SDS011;406;48.566;13.450;2022-10-01T03:24:55;6.53;;;5.37;;
840;SDS011;406;48.566;13.450;2022-10-01T03:27:21;5.93;;;4.23;;
840;SDS011;406;48.566;13.450;2022-10-01T03:29:47;7.20;;;5.10;;
840;SDS011;406;48.566;13.450;2022-10-01T03:32:13;5.97;;;4.70;;
840;SDS011;406;48.566;13.450;2022-10-01T03:34:39;12.00;;;6.10;;
840;SDS011;406;48.566;13.450;2022-10-01T03:37:04;4.50;;;4.10;;
840;SDS011;406;48.566;13.450;2022-10-01T03:39:31;4.63;;;4.13;;
840;SDS011;406;48.566;13.450;2022-10-01T03:41:57;4.90;;;3.93;;
840;SDS011;406;48.566;13.450;2022-10-01T03:44:22;4.70;;;4.10;;
840;SDS011;406;48.566;13.450;2022-10-01T03:46:48;11.20;;;5.80;;
840;SDS011;406;48.566;13.450;2022-10-01T03:49:13;5.93;;;4.73;;
840;SDS011;406;48.566;13.450;2022-10-01T03:51:39;6.70;;;4.63;;
840;SDS011;406;48.566;13.450;2022-10-01T03:54:05;7.13;;;4.97;;
840;SDS011;406;48.566;13.450;2022-10-01T03:56:31;6.47;;;5.70;;
840;SDS011;406;48.566;13.450;2022-10-01T03:58:57;8.33;;;6.10;;
840;SDS011;406;48.566;13.450;2022-10-01T04:01:23;7.47;;;6.03;;
840;SDS011;406;48.566;13.450;2022-10-01T04:03:50;9.20;;;6.20;;
840;SDS011;406;48.566;13.450;2022-10-01T04:06:16;7.03;;;5.30;;
840;SDS011;406;48.566;13.450;2022-10-01T04:08:41;7.13;;;4.90;;
840;SDS011;406;48.566;13.450;2022-10-01T04:11:07;8.67;;;6.17;;
840;SDS011;406;48.566;13.450;2022-10-01T04:13:33;7.37;;;5.40;;
840;SDS011;406;48.566;13.450;2022-10-01T04:15:59;8.60;;;5.50;;
840;SDS011;406;48.566;13.450;2022-10-01T04:18:26;8.20;;;5.77;;
840;SDS011;406;48.566;13.450;2022-10-01T04:20:51;22.80;;;5.80;;
840;SDS011;406;48.566;13.450;2022-10-01T04:23:17;8.30;;;6.70;;
840;SDS011;406;48.566;13.450;2022-10-01T04:25:42;6.93;;;6.00;;
840;SDS011;406;48.566;13.450;2022-10-01T04:28:09;6.63;;;4.53;;
840;SDS011;406;48.566;13.450;2022-10-01T04:30:37;7.73;;;4.60;;
840;SDS011;406;48.566;13.450;2022-10-01T04:33:04;7.53;;;6.40;;
840;SDS011;406;48.566;13.450;2022-10-01T04:35:30;7.50;;;5.67;;
840;SDS011;406;48.566;13.450;2022-10-01T04:40:29;5.23;;;4.60;;
840;SDS011;406;48.566;13.450;2022-10-01T04:42:55;10.13;;;4.90;;
840;SDS011;406;48.566;13.450;2022-10-01T04:45:21;7.37;;;5.00;;
840;SDS011;406;48.566;13.450;2022-10-01T04:47:50;7.33;;;5.70;;
840;SDS011;406;48.566;13.450;2022-10-01T04:50:17;5.70;;;4.53;;
840;SDS011;406;48.566;13.450;2022-10-01T04:52:47;6.47;;;5.77;;
840;SDS011;406;48.566;13.450;2022-10-01T04:55:13;8.07;;;5.20;;
840;SDS011;406;48.566;13.450;2022-10-01T04:57:39;9.50;;;5.20;;
840;SDS011;406;48.566;13.450;2022-10-01T05:00:06;6.50;;;5.70;;
840;SDS011;406;48.566;13.450;2022-10-01T05:02:34;6.40;;;5.60;;
840;SDS011;406;48.566;13.450;2022-10-01T05:05:00;11.03;;;6.37;;
840;SDS011;406;48.566;13.450;2022-10-01T05:07:31;10.33;;;6.77;;
840;SDS011;406;48.566;13.450;2022-10-01T05:09:57;10.90;;;7.23;;
840;SDS011;406;48.566;13.450;2022-10-01T05:12:25;10.33;;;6.93;;
840;SDS011;406;48.566;13.450;2022-10-01T05:14:52;20.53;;;7.37;;
840;SDS011;406;48.566;13.450;2022-10-01T05:17:18;13.03;;;9.10;;
840;SDS011;406;48.566;13.450;2022-10-01T05:19:44;9.73;;;7.30;;
840;SDS011;406;48.566;13.450;2022-10-01T05:22:10;10.53;;;7.63;;
840;SDS011;406;48.566;13.450;2022-10-01T05:24:36;9.17;;;6.83;;
840;SDS011;406;48.566;13.450;2022-10-01T05:27:02;7.20;;;6.50;;
840;SDS011;406;48.566;13.450;2022-10-01T05:29:27;10.97;;;8.33;;
840;SDS011;406;48.566;13.450;2022-10-01T05:31:53;11.13;;;7.40;;
840;SDS011;406;48.566;13.450;2022-10-01T05:34:19;15.73;;;7.03;;
840;SDS011;406;48.566;13.450;2022-10-01T05:36:44;8.43;;;7.50;;
840;SDS011;406;48.566;13.450;2022-10-01T05:39:10;22.57;;;9.00;;
840;SDS011;406;48.566;13.450;2022-10-01T05:41:36;12.00;;;7.13;;
840;SDS011;406;48.566;13.450;2022-10-01T05:44:02;11.33;;;7.30;;
840;SDS011;406;48.566;13.450;2022-10-01T05:46:27;8.53;;;6.47;;
840;SDS011;406;48.566;13.450;2022-10-01T05:48:53;8.10;;;6.30;;
840;SDS011;406;48.566;13.450;2022-10-01T05:51:18;8.10;;;6.67;;
840;SDS011;406;48.566;13.450;2022-10-01T05:53:44;9.40;;;5.80;;
840;SDS011;406;48.566;13.450;2022-10-01T05:56:12;8.00;;;6.17;;
840;SDS011;406;48.566;13.450;2022-10-01T05:58:38;48.30;;;7.47;;
840;SDS011;406;48.566;13.450;2022-10-01T06:01:04;8.20;;;5.33;;
840;SDS011;406;48.566;13.450;2022-10-01T06:03:29;7.53;;;6.23;;
840;SDS011;406;48.566;13.450;2022-10-01T06:05:55;10.13;;;6.77;;
840;SDS011;406;48.566;13.450;2022-10-01T06:08:20;39.50;;;8.97;;
840;SDS011;406;48.566;13.450;2022-10-01T06:10:47;20.77;;;8.00;;
840;SDS011;406;48.566;13.450;2022-10-01T06:13:13;13.80;;;7.70;;
840;SDS011;406;48.566;13.450;2022-10-01T06:15:42;8.83;;;7.00;;
840;SDS011;406;48.566;13.450;2022-10-01T06:18:08;13.20;;;7.97;;
840;SDS011;406;48.566;13.450;2022-10-01T06:20:35;10.33;;;7.00;;
840;SDS011;406;48.566;13.450;2022-10-01T06:23:01;11.70;;;8.00;;
840;SDS011;406;48.566;13.450;2022-10-01T06:25:30;9.50;;;7.57;;
840;SDS011;406;48.566;13.450;2022-10-01T06:27:57;8.73;;;6.30;;
840;SDS011;406;48.566;13.450;2022-10-01T06:30:29;16.60;;;7.13;;
840;SDS011;406;48.566;13.450;2022-10-01T06:35:27;10.57;;;7.50;;
840;SDS011;406;48.566;13.450;2022-10-01T06:37:52;9.27;;;7.70;;
840;SDS011;406;48.566;13.450;2022-10-01T06:40:18;9.50;;;6.93;;
840;SDS011;406;48.566;13.450;2022-10-01T06:42:47;11.70;;;7.17;;
840;SDS011;406;48.566;13.450;2022-10-01T06:45:13;9.67;;;7.13;;
840;SDS011;406;48.566;13.450;2022-10-01T06:47:40;10.17;;;6.93;;
840;SDS011;406;48.566;13.450;2022-10-01T06:50:05;8.90;;;6.70;;
840;SDS011;406;48.566;13.450;2022-10-01T06:52:31;8.67;;;7.73;;
840;SDS011;406;48.566;13.450;2022-10-01T06:55:19;9.27;;;8.07;;
840;SDS011;406;48.566;13.450;2022-10-01T06:57:46;11.00;;;8.30;;
840;SDS011;406;48.566;13.450;2022-10-01T07:00:12;9.17;;;7.80;;
840;SDS011;406;48.566;13.450;2022-10-01T07:02:38;8.50;;;6.63;;
840;SDS011;406;48.566;13.450;2022-10-01T07:05:05;11.40;;;8.40;;
840;SDS011;406;48.566;13.450;2022-10-01T07:07:32;12.03;;;7.30;;
840;SDS011;406;48.566;13.450;2022-10-01T07:10:00;10.20;;;8.30;;
840;SDS011;406;48.566;13.450;2022-10-01T07:12:26;10.80;;;7.30;;
840;SDS011;406;48.566;13.450;2022-10-01T07:14:52;10.37;;;8.90;;
840;SDS011;406;48.566;13.450;2022-10-01T07:17:18;10.47;;;8.47;;
840;SDS011;406;48.566;13.450;2022-10-01T07:19:44;9.50;;;7.77;;
840;SDS011;406;48.566;13.450;2022-10-01T07:22:10;9.40;;;7.80;;
840;SDS011;406;48.566;13.450;2022-10-01T07:24:35;10.43;;;8.67;;
840;SDS011;406;48.566;13.450;2022-10-01T07:27:01;10.27;;;8.30;;
840;SDS011;406;48.566;13.450;2022-10-01T07:29:26;10.60;;;8.80;;
840;SDS011;406;48.566;13.450;2022-10-01T07:31:56;12.73;;;8.80;;
840;SDS011;406;48.566;13.450;2022-10-01T07:34:26;11.00;;;9.50;;
840;SDS011;406;48.566;13.450;2022-10-01T07:36:52;13.03;;;9.27;;
840;SDS011;406;48.566;13.450;2022-10-01T07:39:19;13.53;;;10.00;;
840;SDS011;406;48.566;13.450;2022-10-01T07:41:44;14.80;;;10.80;;
840;SDS011;406;48.566;13.450;2022-10-01T07:44:10;10.63;;;9.53;;
840;SDS011;406;48.566;13.450;2022-10-01T07:46:38;11.20;;;9.47;;
840;SDS011;406;48.566;13.450;2022-10-01T07:49:04;12.63;;;10.70;;
840;SDS011;406;48.566;13.450;2022-10-01T07:51:30;12.07;;;10.30;;
840;SDS011;406;48.566;13.450;2022-10-01T07:53:55;11.80;;;9.90;;
840;SDS011;406;48.566;13.450;2022-10-01T07:56:22;14.10;;;11.10;;
840;SDS011;406;48.566;13.450;2022-10-01T07:58:47;12.10;;;9.97;;
840;SDS011;406;48.566;13.450;2022-10-01T08:01:13;15.37;;;9.80;;
840;SDS011;406;48.566;13.450;2022-10-01T08:03:38;11.80;;;9.50;;
840;SDS011;406;48.566;13.450;2022-10-01T08:06:04;13.53;;;10.33;;
840;SDS011;406;48.566;13.450;2022-10-01T08:08:33;14.07;;;9.83;;
840;SDS011;406;48.566;13.450;2022-10-01T08:11:00;13.43;;;8.63;;
840;SDS011;406;48.566;13.450;2022-10-01T08:13:26;10.80;;;9.03;;
840;SDS011;406;48.566;13.450;2022-10-01T08:15:52;11.60;;;9.30;;
840;SDS011;406;48.566;13.450;2022-10-01T08:18:19;11.90;;;9.70;;
840;SDS011;406;48.566;13.450;2022-10-01T08:20:45;12.53;;;10.40;;
840;SDS011;406;48.566;13.450;2022-10-01T08:23:12;12.30;;;9.83;;
840;SDS011;406;48.566;13.450;2022-10-01T08:25:39;14.07;;;11.50;;
840;SDS011;406;48.566;13.450;2022-10-01T08:28:05;13.67;;;10.40;;
840;SDS011;406;48.566;13.450;2022-10-01T08:30:31;16.00;;;12.97;;
840;SDS011;406;48.566;13.450;2022-10-01T08:32:57;13.67;;;11.33;;
840;SDS011;406;48.566;13.450;2022-10-01T08:35:23;14.60;;;11.50;;
840;SDS011;406;48.566;13.450;2022-10-01T08:37:49;11.80;;;9.90;;
840;SDS011;406;48.566;13.450;2022-10-01T08:40:15;12.17;;;9.90;;
840;SDS011;406;48.566;13.450;2022-10-01T08:42:46;12.23;;;10.57;;
840;SDS011;406;48.566;13.450;2022-10-01T08:45:19;12.20;;;10.33;;
840;SDS011;406;48.566;13.450;2022-10-01T08:47:53;11.23;;;9.70;;
840;SDS011;406;48.566;13.450;2022-10-01T08:53:29;9.77;;;8.77;;
840;SDS011;406;48.566;13.450;2022-10-01T08:56:39;12.23;;;10.07;;
840;SDS011;406;48.566;13.450;2022-10-01T08:59:43;11.27;;;9.90;;
840;SDS011;406;48.566;13.450;2022-10-01T09:04:53;11.53;;;10.30;;
840;SDS011;406;48.566;13.450;2022-10-01T09:15:56;11.10;;;9.30;;
840;SDS011;406;48.566;13.450;2022-10-01T09:21:17;11.23;;;9.60;;
840;SDS011;406;48.566;13.450;2022-10-01T09:24:03;11.93;;;10.40;;
840;SDS011;406;48.566;13.450;2022-10-01T09:26:32;11.60;;;8.33;;
840;SDS011;406;48.566;13.450;2022-10-01T09:29:00;11.57;;;9.00;;
840;SDS011;406;48.566;13.450;2022-10-01T09:31:30;10.13;;;9.13;;
840;SDS011;406;48.566;13.450;2022-10-01T09:34:01;16.67;;;8.90;;
840;SDS011;406;48.566;13.450;2022-10-01T09:36:33;11.30;;;9.23;;
840;SDS011;406;48.566;13.450;2022-10-01T09:41:36;9.50;;;7.77;;
840;SDS011;406;48.566;13.450;2022-10-01T09:44:01;10.73;;;8.90;;
840;SDS011;406;48.566;13.450;2022-10-01T09:46:28;10.00;;;8.90;;
840;SDS011;406;48.566;13.450;2022-10-01T09:49:10;11.40;;;8.90;;
840;SDS011;406;48.566;13.450;2022-10-01T09:51:41;11.37;;;9.60;;
840;SDS011;406;48.566;13.450;2022-10-01T09:56:54;14.60;;;9.23;;
840;SDS011;406;48.566;13.450;2022-10-01T09:59:28;11.60;;;9.97;;
840;SDS011;406;48.566;13.450;2022-10-01T10:01:56;13.10;;;9.77;;
840;SDS011;406;48.566;13.450;2022-10-01T10:04:23;11.40;;;10.00;;
840;SDS011;406;48.566;13.450;2022-10-01T10:06:49;10.27;;;9.20;;
840;SDS011;406;48.566;13.450;2022-10-01T10:09:16;11.10;;;9.20;;
840;SDS011;406;48.566;13.450;2022-10-01T10:11:43;9.87;;;8.87;;
840;SDS011;406;48.566;13.450;2022-10-01T10:14:22;8.73;;;7.87;;
840;SDS011;406;48.566;13.450;2022-10-01T10:16:52;10.23;;;7.30;;
840;SDS011;406;48.566;13.450;2022-10-01T10:19:22;7.80;;;7.00;;
840;SDS011;406;48.566;13.450;2022-10-01T10:21:51;12.47;;;6.60;;
840;SDS011;406;48.566;13.450;2022-10-01T10:24:20;9.03;;;8.10;;
840;SDS011;406;48.566;13.450;2022-10-01T10:26:55;9.87;;;7.47;;
840;SDS011;406;48.566;13.450;2022-10-01T10:29:32;9.20;;;7.80;;
840;SDS011;406;48.566;13.450;2022-10-01T10:32:08;9.77;;;8.23;;
840;SDS011;406;48.566;13.450;2022-10-01T10:34:43;12.40;;;9.80;;
840;SDS011;406;48.566;13.450;2022-10-01T10:37:13;12.73;;;9.50;;
840;SDS011;406;48.566;13.450;2022-10-01T10:39:41;10.80;;;9.47;;
840;SDS011;406;48.566;13.450;2022-10-01T10:42:15;10.37;;;8.67;;
840;SDS011;406;48.566;13.450;2022-10-01T10:44:41;9.47;;;7.67;;
840;SDS011;406;48.566;13.450;2022-10-01T10:47:09;8.57;;;6.63;;
840;SDS011;406;48.566;13.450;2022-10-01T10:49:42;10.27;;;7.67;;
840;SDS011;406;48.566;13.450;2022-10-01T10:52:29;7.63;;;6.20;;
840;SDS011;406;48.566;13.450;2022-10-01T10:55:01;5.67;;;5.00;;
840;SDS011;406;48.566;13.450;2022-10-01T10:57:45;6.77;;;4.60;;
840;SDS011;406;48.566;13.450;2022-10-01T11:02:38;3.87;;;3.47;;
840;SDS011;406;48.566;13.450;2022-10-01T11:05:16;5.10;;;2.53;;
840;SDS011;406;48.566;13.450;2022-10-01T11:07:44;5.10;;;2.93;;
840;SDS011;406;48.566;13.450;2022-10-01T11:10:24;3.73;;;2.33;;
840;SDS011;406;48.566;13.450;2022-10-01T11:18:53;2.50;;;1.73;;
840;SDS011;406;48.566;13.450;2022-10-01T11:29:27;2.33;;;2.10;;
840;SDS011;406;48.566;13.450;2022-10-01T11:32:19;3.50;;;1.93;;
840;SDS011;406;48.566;13.450;2022-10-01T11:40:21;2.47;;;1.33;;
840;SDS011;406;48.566;13.450;2022-10-01T11:42:50;2.03;;;1.77;;
840;SDS011;406;48.566;13.450;2022-10-01T11:45:22;2.07;;;1.30;;
840;SDS011;406;48.566;13.450;2022-10-01T11:50:20;2.50;;;1.70;;
840;SDS011;406;48.566;13.450;2022-10-01T11:52:48;3.40;;;1.23;;
840;SDS011;406;48.566;13.450;2022-10-01T11:55:21;3.87;;;1.70;;
840;SDS011;406;48.566;13.450;2022-10-01T11:58:17;1.63;;;1.43;;
840;SDS011;406;48.566;13.450;2022-10-01T12:01:10;2.17;;;1.80;;
840;SDS011;406;48.566;13.450;2022-10-01T12:06:53;2.30;;;1.67;;
840;SDS011;406;48.566;13.450;2022-10-01T12:09:30;2.53;;;1.67;;
840;SDS011;406;48.566;13.450;2022-10-01T12:12:06;1.70;;;1.00;;
840;SDS011;406;48.566;13.450;2022-10-01T12:14:36;2.30;;;1.63;;
840;SDS011;406;48.566;13.450;2022-10-01T12:17:10;1.43;;;1.30;;
840;SDS011;406;48.566;13.450;2022-10-01T12:19:41;1.17;;;1.00;;
840;SDS011;406;48.566;13.450;2022-10-01T12:22:14;7.80;;;1.43;;
840;SDS011;406;48.566;13.450;2022-10-01T12:24:45;2.00;;;1.50;;
840;SDS011;406;48.566;13.450;2022-10-01T12:30:18;1.40;;;1.30;;
840;SDS011;406;48.566;13.450;2022-10-01T12:41:42;1.63;;;1.33;;
840;SDS011;406;48.566;13.450;2022-10-01T12:46:59;2.70;;;1.10;;
840;SDS011;406;48.566;13.450;2022-10-01T12:49:40;1.57;;;1.37;;
840;SDS011;406;48.566;13.450;2022-10-01T12:52:28;2.10;;;1.67;;
840;SDS011;406;48.566;13.450;2022-10-01T12:55:04;1.90;;;1.70;;
840;SDS011;406;48.566;13.450;2022-10-01T13:00:20;2.20;;;1.83;;
840;SDS011;406;48.566;13.450;2022-10-01T13:03:03;2.00;;;1.63;;
840;SDS011;406;48.566;13.450;2022-10-01T13:10:58;2.20;;;1.80;;
840;SDS011;406;48.566;13.450;2022-10-01T13:13:27;9.10;;;1.63;;
840;SDS011;406;48.566;13.450;2022-10-01T13:16:33;2.40;;;1.80;;
840;SDS011;406;48.566;13.450;2022-10-01T13:27:34;2.50;;;2.10;;
840;SDS011;406;48.566;13.450;2022-10-01T13:30:21;1.90;;;1.70;;
840;SDS011;406;48.566;13.450;2022-10-01T13:32:57;2.40;;;2.00;;
840;SDS011;406;48.566;13.450;2022-10-01T13:38:00;3.37;;;1.87;;
840;SDS011;406;48.566;13.450;2022-10-01T13:40:28;3.50;;;2.20;;
840;SDS011;406;48.566;13.450;2022-10-01T13:42:57;2.20;;;1.97;;
840;SDS011;406;48.566;13.450;2022-10-01T13:45:46;2.13;;;1.67;;
840;SDS011;406;48.566;13.450;2022-10-01T13:48:17;2.60;;;1.80;;
840;SDS011;406;48.566;13.450;2022-10-01T13:53:33;3.17;;;2.20;;
840;SDS011;406;48.566;13.450;2022-10-01T13:56:01;4.77;;;2.10;;
840;SDS011;406;48.566;13.450;2022-10-01T13:58:33;2.50;;;1.77;;
840;SDS011;406;48.566;13.450;2022-10-01T14:01:04;2.70;;;2.27;;
840;SDS011;406;48.566;13.450;2022-10-01T14:11:30;4.47;;;1.80;;
840;SDS011;406;48.566;13.450;2022-10-01T14:17:40;1.47;;;1.23;;
840;SDS011;406;48.566;13.450;2022-10-01T14:20:08;2.50;;;1.67;;
840;SDS011;406;48.566;13.450;2022-10-01T14:25:31;1.70;;;1.17;;
840;SDS011;406;48.566;13.450;2022-10-01T14:28:06;2.20;;;1.83;;
840;SDS011;406;48.566;13.450;2022-10-01T14:30:47;1.90;;;1.50;;
840;SDS011;406;48.566;13.450;2022-10-01T14:38:45;4.10;;;2.43;;
840;SDS011;406;48.566;13.450;2022-10-01T14:41:17;2.70;;;2.27;;
840;SDS011;406;48.566;13.450;2022-10-01T14:43:44;1.83;;;1.40;;
840;SDS011;406;48.566;13.450;2022-10-01T14:46:12;1.83;;;1.30;;
840;SDS011;406;48.566;13.450;2022-10-01T14:48:39;1.87;;;1.20;;
840;SDS011;406;48.566;13.450;2022-10-01T14:51:06;3.57;;;2.13;;
840;SDS011;406;48.566;13.450;2022-10-01T14:53:45;1.67;;;1.30;;
840;SDS011;406;48.566;13.450;2022-10-01T14:56:11;2.30;;;1.47;;
840;SDS011;406;48.566;13.450;2022-10-01T14:58:38;3.30;;;2.03;;
840;SDS011;406;48.566;13.450;2022-10-01T15:01:19;1.30;;;1.10;;
840;SDS011;406;48.566;13.450;2022-10-01T15:03:46;3.20;;;1.67;;
840;SDS011;406;48.566;13.450;2022-10-01T15:06:13;2.00;;;1.20;;
840;SDS011;406;48.566;13.450;2022-10-01T15:08:46;1.30;;;1.00;;
840;SDS011;406;48.566;13.450;2022-10-01T15:11:17;3.27;;;1.73;;
840;SDS011;406;48.566;13.450;2022-10-01T15:13:45;2.03;;;1.40;;
840;SDS011;406;48.566;13.450;2022-10-01T15:16:16;1.80;;;1.60;;
840;SDS011;406;48.566;13.450;2022-10-01T15:18:51;2.07;;;1.50;;
840;SDS011;406;48.566;13.450;2022-10-01T15:21:23;2.07;;;1.30;;
840;SDS011;406;48.566;13.450;2022-10-01T15:23:51;1.90;;;1.13;;
840;SDS011;406;48.566;13.450;2022-10-01T15:26:18;1.50;;;1.00;;
840;SDS011;406;48.566;13.450;2022-10-01T15:28:45;1.10;;;0.90;;
840;SDS011;406;48.566;13.450;2022-10-01T15:31:11;1.67;;;1.30;;
840;SDS011;406;48.566;13.450;2022-10-01T15:33:37;1.77;;;1.00;;
840;SDS011;406;48.566;13.450;2022-10-01T15:36:07;2.00;;;1.20;;
840;SDS011;406;48.566;13.450;2022-10-01T15:38:37;1.30;;;0.80;;
840;SDS011;406;48.566;13.450;2022-10-01T15:41:04;1.20;;;1.00;;
840;SDS011;406;48.566;13.450;2022-10-01T15:48:34;2.53;;;1.00;;
840;SDS011;406;48.566;13.450;2022-10-01T15:53:47;5.03;;;1.27;;
840;SDS011;406;48.566;13.450;2022-10-01T15:56:14;2.00;;;1.40;;
840;SDS011;406;48.566;13.450;2022-10-01T15:58:52;1.93;;;1.33;;
840;SDS011;406;48.566;13.450;2022-10-01T16:01:21;1.87;;;0.83;;
840;SDS011;406;48.566;13.450;2022-10-01T16:06:27;1.20;;;0.90;;
840;SDS011;406;48.566;13.450;2022-10-01T16:11:27;1.70;;;1.20;;
840;SDS011;406;48.566;13.450;2022-10-01T16:16:46;2.27;;;1.60;;
840;SDS011;406;48.566;13.450;2022-10-01T16:19:29;3.10;;;1.30;;
840;SDS011;406;48.566;13.450;2022-10-01T16:24:49;4.17;;;1.77;;
840;SDS011;406;48.566;13.450;2022-10-01T16:27:21;3.30;;;1.90;;
840;SDS011;406;48.566;13.450;2022-10-01T16:30:02;2.60;;;1.73;;
840;SDS011;406;48.566;13.450;2022-10-01T16:32:34;2.63;;;1.60;;
840;SDS011;406;48.566;13.450;2022-10-01T16:38:07;1.80;;;1.40;;
840;SDS011;406;48.566;13.450;2022-10-01T16:40:36;1.53;;;1.40;;
840;SDS011;406;48.566;13.450;2022-10-01T16:43:03;1.90;;;1.30;;
840;SDS011;406;48.566;13.450;2022-10-01T16:45:37;1.73;;;1.33;;
840;SDS011;406;48.566;13.450;2022-10-01T16:48:11;1.60;;;1.50;;
840;SDS011;406;48.566;13.450;2022-10-01T16:50:38;2.07;;;1.40;;
840;SDS011;406;48.566;13.450;2022-10-01T16:53:04;2.20;;;1.90;;
840;SDS011;406;48.566;13.450;2022-10-01T16:55:30;1.47;;;1.37;;
840;SDS011;406;48.566;13.450;2022-10-01T16:58:00;3.60;;;1.60;;
840;SDS011;406;48.566;13.450;2022-10-01T17:00:26;1.67;;;1.20;;
840;SDS011;406;48.566;13.450;2022-10-01T17:02:55;5.70;;;1.47;;
840;SDS011;406;48.566;13.450;2022-10-01T17:05:23;1.70;;;1.40;;
840;SDS011;406;48.566;13.450;2022-10-01T17:07:50;2.47;;;2.00;;
840;SDS011;406;48.566;13.450;2022-10-01T17:10:17;1.77;;;1.33;;
840;SDS011;406;48.566;13.450;2022-10-01T17:12:43;2.33;;;1.50;;
840;SDS011;406;48.566;13.450;2022-10-01T17:15:15;2.47;;;1.70;;
840;SDS011;406;48.566;13.450;2022-10-01T17:17:44;1.70;;;1.37;;
840;SDS011;406;48.566;13.450;2022-10-01T17:20:11;2.70;;;1.57;;
840;SDS011;406;48.566;13.450;2022-10-01T17:22:37;1.60;;;1.50;;
840;SDS011;406;48.566;13.450;2022-10-01T17:25:03;2.53;;;1.77;;
840;SDS011;406;48.566;13.450;2022-10-01T17:27:30;1.30;;;1.20;;
840;SDS011;406;48.566;13.450;2022-10-01T17:29:55;1.70;;;1.50;;
840;SDS011;406;48.566;13.450;2022-10-01T17:32:21;1.83;;;1.47;;
840;SDS011;406;48.566;13.450;2022-10-01T17:34:46;1.77;;;1.30;;
840;SDS011;406;48.566;13.450;2022-10-01T17:37:13;1.63;;;1.30;;
840;SDS011;406;48.566;13.450;2022-10-01T17:39:38;3.83;;;1.40;;
840;SDS011;406;48.566;13.450;2022-10-01T17:42:06;4.40;;;1.70;;
840;SDS011;406;48.566;13.450;2022-10-01T17:44:31;6.13;;;1.70;;
840;SDS011;406;48.566;13.450;2022-10-01T17:46:57;2.97;;;1.60;;
840;SDS011;406;48.566;13.450;2022-10-01T17:49:22;2.37;;;1.97;;
840;SDS011;406;48.566;13.450;2022-10-01T17:51:48;2.60;;;1.47;;
840;SDS011;406;48.566;13.450;2022-10-01T17:54:13;3.10;;;2.20;;
840;SDS011;406;48.566;13.450;2022-10-01T17:56:39;2.17;;;1.57;;
840;SDS011;406;48.566;13.450;2022-10-01T17:59:06;5.73;;;2.00;;
840;SDS011;406;48.566;13.450;2022-10-01T18:01:32;3.83;;;1.80;;
840;SDS011;406;48.566;13.450;2022-10-01T18:03:58;2.70;;;1.90;;
840;SDS011;406;48.566;13.450;2022-10-01T18:06:25;2.20;;;1.73;;
840;SDS011;406;48.566;13.450;2022-10-01T18:08:51;2.70;;;2.17;;
840;SDS011;406;48.566;13.450;2022-10-01T18:11:16;2.20;;;1.90;;
840;SDS011;406;48.566;13.450;2022-10-01T18:13:43;2.40;;;1.50;;